Terminal Aerodrome Forecast
Issued by NWS Sioux Falls, SD

Home | Current Version | Previous Version | Graphics & Text | Print | Product List | Glossary On
Versions: 1 2 3 4 5 6 7 8 9 10 11 12 13
000
FTUS43 KFSD 190528
TAFSUX
TAF
KSUX 190528Z 1906/2006 09006KT P6SM BKN040
     FM191600 11008KT P6SM SCT050
     FM191900 16014G22KT P6SM SCT080
     FM200200 17012KT P6SM BKN200=

USA.gov is the U.S. government's official web portal to all federal, state and local government web resources and services.